Flomot, Texas
Current Conditions -  °F | °C
As of 4:55 PM on Monday 24 Nov 2014 (Local Time) from KPVW Reporting Station
Clear Clear  
Wind Chill: 50°   Ceiling: Unl
Heat Index: 50°   Visibility: 10mi
Dew Point: 19°   Wind: 0mph
Humidity: 29%   Direction: NA
Pressure: 30.02"   Gusts: NA
Location:  34.23°N, 100.99°W
Report Text: KPVW 242255Z AUTO 00000KT 10SM CLR 10/M07 A3002 RMK AO2 T01001073
Loading
Personal Weather Stations






























Interactive Weather Map New forecast layout! Learn more

10-Day Weather Forecast

Advertisements
Track Severe Weather on mobile